createdAt,value
2018-10-01T00:00:29.796Z,5.37
2018-10-01T00:03:00.806Z,5.17
2018-10-01T00:05:30.844Z,5.37
2018-10-01T00:08:00.821Z,5.03
2018-10-01T00:10:32.830Z,5.33
2018-10-01T00:13:02.948Z,4.90
2018-10-01T00:15:33.887Z,5.47
2018-10-01T00:18:03.925Z,5.20
2018-10-01T00:20:42.234Z,5.15
2018-10-01T00:23:11.798Z,5.27
2018-10-01T00:25:40.969Z,5.23
2018-10-01T00:28:11.255Z,5.20
2018-10-01T00:30:40.960Z,4.50
2018-10-01T00:35:39.633Z,4.40
2018-10-01T00:38:11.175Z,4.70
2018-10-01T00:40:40.833Z,4.70
2018-10-01T00:43:10.893Z,4.30
2018-10-01T00:45:41.701Z,5.17
2018-10-01T00:48:11.172Z,5.40
2018-10-01T00:50:40.809Z,5.10
2018-10-01T00:53:09.912Z,5.30
2018-10-01T00:57:51.884Z,5.00
2018-10-01T01:00:21.885Z,5.00
2018-10-01T01:02:51.690Z,5.00
2018-10-01T01:05:20.921Z,5.00
2018-10-01T01:07:51.323Z,5.50
2018-10-01T01:14:50.840Z,5.20
2018-10-01T01:17:18.849Z,5.30
2018-10-01T01:19:47.525Z,4.73
2018-10-01T01:22:16.473Z,4.70
2018-10-01T01:24:46.886Z,4.93
2018-10-01T01:27:16.606Z,4.53
2018-10-01T01:32:14.765Z,4.42
2018-10-01T01:34:44.581Z,4.70
2018-10-01T01:37:14.811Z,4.50
2018-10-01T01:39:44.893Z,4.90
2018-10-01T01:45:07.747Z,4.93
2018-10-01T01:47:36.890Z,5.20
2018-10-01T01:54:05.302Z,5.00
2018-10-01T01:56:35.941Z,5.15
2018-10-01T01:59:05.939Z,4.87
2018-10-01T02:01:35.722Z,5.80
2018-10-01T02:04:04.947Z,4.90
2018-10-01T02:06:34.861Z,3.80
2018-10-01T02:09:06.743Z,5.20
2018-10-01T02:11:36.857Z,4.40
2018-10-01T02:14:08.485Z,4.50
2018-10-01T02:16:38.850Z,4.60
2018-10-01T02:20:49.702Z,5.00
2018-10-01T02:24:29.653Z,4.60
2018-10-01T02:26:58.819Z,4.30
2018-10-01T02:29:27.918Z,4.42
2018-10-01T02:31:57.071Z,4.35
2018-10-01T02:34:26.771Z,4.30
2018-10-01T02:36:55.869Z,4.00
2018-10-01T02:39:25.613Z,4.95
2018-10-01T02:41:55.622Z,4.57
2018-10-01T02:45:54.243Z,4.15
2018-10-01T02:50:52.214Z,4.40
2018-10-01T02:53:27.862Z,4.75
2018-10-01T02:55:57.065Z,3.65
2018-10-01T03:00:55.967Z,3.80
2018-10-01T03:03:26.646Z,4.20
2018-10-01T03:05:55.857Z,4.20
2018-10-01T03:08:25.167Z,4.40
2018-10-01T03:13:24.190Z,4.50
2018-10-01T03:18:37.782Z,4.20
2018-10-01T03:23:42.939Z,4.10
2018-10-01T03:26:12.174Z,4.40
2018-10-01T03:28:41.762Z,3.75
2018-10-01T03:31:10.779Z,3.50
2018-10-01T03:33:40.002Z,5.60
2018-10-01T03:36:09.747Z,3.50
2018-10-01T03:38:38.958Z,4.10
2018-10-01T03:41:09.828Z,4.13
2018-10-01T03:44:05.824Z,4.00
2018-10-01T03:46:37.801Z,3.80
2018-10-01T03:49:08.710Z,4.00
2018-10-01T03:51:37.516Z,3.80
2018-10-01T03:54:08.011Z,4.80
2018-10-01T03:56:37.692Z,4.90
2018-10-01T03:59:07.931Z,3.40
2018-10-01T04:01:37.940Z,3.85
2018-10-01T04:05:19.666Z,3.70
2018-10-01T04:07:48.906Z,4.37
2018-10-01T04:10:18.911Z,4.40
2018-10-01T04:12:48.867Z,4.10
2018-10-01T04:15:18.182Z,3.87
2018-10-01T04:17:47.714Z,3.70
2018-10-01T04:20:16.962Z,3.70
2018-10-01T04:22:46.267Z,3.57
2018-10-01T04:27:48.635Z,3.85
2018-10-01T04:30:18.651Z,4.20
2018-10-01T04:35:18.818Z,3.35
2018-10-01T04:37:49.674Z,3.80
2018-10-01T04:40:18.961Z,3.70
2018-10-01T04:42:53.219Z,4.50
2018-10-01T04:45:22.748Z,3.83
2018-10-01T04:47:52.050Z,3.30
2018-10-01T04:50:22.498Z,4.00
2018-10-01T04:53:02.753Z,3.25
2018-10-01T04:55:31.965Z,3.60
2018-10-01T04:58:01.796Z,4.67
2018-10-01T05:00:31.122Z,3.50
2018-10-01T05:03:00.614Z,3.40
2018-10-01T05:08:00.822Z,3.20
2018-10-01T05:10:32.594Z,5.95
2018-10-01T05:13:02.711Z,3.80
2018-10-01T05:18:02.806Z,3.30
2018-10-01T05:20:32.216Z,3.75
2018-10-01T05:23:01.826Z,3.90
2018-10-01T05:25:31.750Z,3.47
2018-10-01T05:28:00.960Z,3.43
2018-10-01T05:30:30.963Z,4.28
2018-10-01T05:33:01.897Z,3.60
2018-10-01T05:35:32.191Z,9.28
2018-10-01T05:38:01.793Z,4.77
2018-10-01T05:40:31.619Z,4.50
2018-10-01T05:43:00.550Z,4.70
2018-10-01T05:47:58.701Z,4.60
2018-10-01T05:50:27.930Z,5.95
2018-10-01T05:52:57.206Z,7.05
2018-10-01T05:55:27.903Z,4.97
2018-10-01T05:57:57.627Z,3.60
2018-10-01T06:00:26.911Z,5.30
2018-10-01T06:04:31.755Z,3.90
2018-10-01T06:07:00.879Z,5.80
2018-10-01T06:11:59.554Z,6.70
2018-10-01T06:16:36.605Z,3.30
2018-10-01T06:19:05.775Z,4.12
2018-10-01T06:21:34.862Z,4.05
2018-10-01T06:24:03.914Z,5.03
2018-10-01T06:29:02.834Z,5.72
2018-10-01T06:31:32.810Z,8.55
2018-10-01T06:34:02.613Z,6.37
2018-10-01T06:36:32.010Z,9.23
2018-10-01T06:41:50.280Z,11.60
2018-10-01T06:44:19.866Z,10.20
2018-10-01T06:49:30.815Z,10.65
2018-10-01T06:51:59.990Z,11.20
2018-10-01T06:54:29.849Z,12.37
2018-10-01T06:56:59.205Z,10.47
2018-10-01T06:59:28.738Z,12.90
2018-10-01T07:01:58.956Z,12.00
2018-10-01T07:04:28.945Z,13.20
2018-10-01T07:06:58.754Z,12.73
2018-10-01T07:09:28.199Z,11.90
2018-10-01T07:11:59.254Z,13.10
2018-10-01T07:14:28.867Z,12.37
2018-10-01T07:18:00.655Z,10.55
2018-10-01T07:22:59.024Z,9.60
2018-10-01T07:25:28.854Z,11.33
2018-10-01T07:27:58.769Z,11.13
2018-10-01T07:30:28.054Z,9.58
2018-10-01T07:32:58.202Z,10.20
2018-10-01T07:35:27.734Z,8.10
2018-10-01T07:37:56.856Z,12.90
2018-10-01T07:40:26.837Z,10.40
2018-10-01T07:42:56.183Z,11.55
2018-10-01T07:45:26.034Z,11.60
2018-10-01T07:47:56.829Z,11.93
2018-10-01T07:50:27.905Z,10.60
2018-10-01T07:52:57.226Z,13.87
2018-10-01T07:55:26.749Z,10.70
2018-10-01T08:00:42.877Z,9.15
2018-10-01T08:07:05.851Z,9.50
2018-10-01T08:12:06.854Z,7.00
2018-10-01T08:14:38.813Z,10.27
2018-10-01T08:17:09.761Z,10.30
2018-10-01T08:19:39.845Z,14.53
2018-10-01T08:22:09.930Z,14.30
2018-10-01T08:25:55.669Z,15.70
2018-10-01T08:30:54.209Z,9.57
2018-10-01T08:33:22.826Z,14.85
2018-10-01T08:35:50.858Z,10.10
2018-10-01T08:40:47.822Z,8.70
2018-10-01T08:43:16.438Z,10.05
2018-10-01T08:45:44.514Z,12.70
2018-10-01T08:48:13.878Z,11.45
2018-10-01T08:50:45.179Z,11.80
2018-10-01T08:54:21.336Z,12.35
2018-10-01T08:56:49.413Z,9.67
2018-10-01T08:59:17.524Z,9.83
2018-10-01T09:01:45.782Z,12.50
2018-10-01T09:04:13.790Z,10.80
2018-10-01T09:06:41.708Z,10.20
2018-10-01T09:09:12.477Z,11.57
2018-10-01T09:11:41.019Z,11.55
2018-10-01T09:14:10.511Z,9.80
2018-10-01T09:16:38.850Z,11.65
2018-10-01T09:19:07.378Z,11.60
2018-10-01T09:21:35.651Z,11.10
2018-10-01T09:24:04.338Z,13.75
2018-10-01T09:26:34.030Z,13.75
2018-10-01T09:29:04.038Z,12.20
2018-10-01T09:31:33.979Z,12.05
2018-10-01T09:34:03.909Z,13.80
2018-10-01T09:40:45.828Z,11.40
2018-10-01T09:43:14.802Z,12.60
2018-10-01T09:45:44.830Z,11.60
2018-10-01T09:48:51.597Z,13.95
2018-10-01T09:51:23.109Z,11.30
2018-10-01T09:53:52.900Z,10.20
2018-10-01T09:56:22.812Z,10.05
2018-10-01T09:58:52.023Z,11.13
2018-10-01T10:03:51.213Z,7.20
2018-10-01T10:06:20.938Z,9.23
2018-10-01T10:08:50.795Z,9.20
2018-10-01T10:11:20.829Z,11.20
2018-10-01T10:13:50.760Z,7.60
2018-10-01T10:20:03.834Z,9.77
2018-10-01T10:22:33.103Z,7.80
2018-10-01T10:25:02.874Z,11.40
2018-10-01T10:27:32.918Z,9.50
2018-10-01T10:30:02.913Z,8.97
2018-10-01T10:32:32.976Z,7.15
2018-10-01T10:35:02.918Z,9.33
2018-10-01T10:37:32.918Z,8.40
2018-10-01T10:40:02.874Z,9.25
2018-10-01T10:45:02.960Z,7.37
2018-10-01T10:47:32.905Z,6.20
2018-10-01T10:50:02.945Z,9.40
2018-10-01T10:52:32.877Z,6.25
2018-10-01T10:57:30.954Z,7.20
2018-10-01T11:00:00.950Z,8.63
2018-10-01T11:02:31.019Z,7.00
2018-10-01T11:05:00.970Z,8.70
2018-10-01T11:07:30.911Z,6.60
2018-10-01T11:10:00.918Z,8.00
2018-10-01T11:12:31.870Z,11.30
2018-10-01T11:17:32.119Z,12.45
2018-10-01T11:20:02.934Z,8.00
2018-10-01T11:22:32.839Z,7.90
2018-10-01T11:27:33.841Z,9.00
2018-10-01T11:30:03.763Z,10.07
2018-10-01T11:32:33.006Z,5.77
2018-10-01T11:37:31.708Z,7.40
2018-10-01T11:42:18.648Z,9.65
2018-10-01T11:44:47.869Z,10.25
2018-10-01T11:47:17.887Z,7.90
2018-10-01T11:52:18.077Z,12.60
2018-10-01T11:54:48.994Z,8.25
2018-10-01T11:57:19.034Z,5.00
2018-10-01T11:59:48.938Z,9.10
2018-10-01T12:02:18.858Z,5.57
2018-10-01T12:04:48.841Z,8.40
2018-10-01T12:07:18.873Z,11.60
2018-10-01T12:12:18.632Z,6.80
2018-10-01T12:14:47.973Z,8.90
2018-10-01T12:17:19.075Z,7.20
2018-10-01T12:22:20.030Z,9.90
2018-10-01T12:24:49.970Z,11.10
2018-10-01T12:27:19.996Z,5.70
2018-10-01T12:29:50.440Z,5.80
2018-10-01T12:32:21.958Z,6.80
2018-10-01T12:34:55.277Z,5.15
2018-10-01T12:37:27.918Z,5.20
2018-10-01T12:39:57.996Z,7.80
2018-10-01T12:44:57.076Z,3.95
2018-10-01T12:49:56.194Z,5.80
2018-10-01T12:52:25.996Z,4.90
2018-10-01T12:54:55.954Z,6.50
2018-10-01T12:57:27.006Z,3.97
2018-10-01T12:59:57.006Z,3.90
2018-10-01T13:02:26.662Z,6.00
2018-10-01T13:07:25.755Z,4.70
2018-10-01T13:09:57.073Z,2.75
2018-10-01T13:20:13.975Z,4.30
2018-10-01T13:22:45.022Z,2.90
2018-10-01T13:25:15.044Z,3.90
2018-10-01T13:30:15.163Z,2.40
2018-10-01T13:32:44.694Z,5.17
2018-10-01T13:35:14.806Z,2.25
2018-10-01T13:37:46.579Z,6.40
2018-10-01T13:40:17.830Z,3.05
2018-10-01T13:42:48.832Z,4.00
2018-10-01T13:47:50.742Z,5.72
2018-10-01T13:50:20.687Z,4.43
2018-10-01T13:55:19.942Z,2.75
2018-10-01T13:57:51.779Z,2.35
2018-10-01T14:02:50.975Z,1.80
2018-10-01T14:05:20.974Z,1.90
2018-10-01T14:07:51.044Z,2.20
2018-10-01T14:12:55.857Z,2.00
2018-10-01T14:15:24.841Z,6.15
2018-10-01T14:17:53.229Z,1.80
2018-10-01T14:20:22.282Z,2.47
2018-10-01T14:22:50.390Z,2.40
2018-10-01T14:25:18.872Z,3.80
2018-10-01T14:27:47.528Z,3.37
2018-10-01T14:32:43.106Z,1.80
2018-10-01T14:35:11.921Z,2.20
2018-10-01T14:42:36.728Z,2.55
2018-10-01T14:45:06.925Z,2.03
2018-10-01T14:47:35.398Z,2.80
2018-10-01T14:50:05.453Z,2.95
2018-10-01T14:52:33.430Z,2.70
2018-10-01T14:55:01.279Z,2.50
2018-10-01T14:57:29.034Z,3.35
2018-10-01T14:59:57.454Z,4.25
2018-10-01T15:04:53.773Z,2.80
2018-10-01T15:07:22.322Z,3.10
2018-10-01T15:09:50.714Z,3.05
2018-10-01T15:12:18.747Z,2.73
2018-10-01T15:14:46.651Z,4.13
2018-10-01T15:17:14.778Z,4.00
2018-10-01T15:19:42.769Z,2.35
2018-10-01T15:24:02.906Z,2.58
2018-10-01T15:26:30.783Z,3.85
2018-10-01T15:28:58.486Z,1.73
2018-10-01T15:31:52.681Z,2.60
2018-10-01T15:34:20.889Z,4.53
2018-10-01T15:39:31.613Z,2.57
2018-10-01T15:42:00.487Z,2.35
2018-10-01T15:44:28.931Z,3.33
2018-10-01T15:46:56.825Z,3.45
2018-10-01T15:49:25.325Z,3.90
2018-10-01T15:51:54.066Z,3.20
2018-10-01T15:54:22.987Z,2.60
2018-10-01T15:56:50.999Z,2.20
2018-10-01T16:01:47.458Z,3.80
2018-10-01T16:04:15.845Z,4.27
2018-10-01T16:06:45.562Z,2.20
2018-10-01T16:09:13.571Z,1.50
2018-10-01T16:11:41.490Z,1.85
2018-10-01T16:14:09.562Z,1.98
2018-10-01T16:16:37.469Z,2.30
2018-10-01T16:19:06.623Z,2.40
2018-10-01T16:21:34.799Z,1.50
2018-10-01T16:26:41.671Z,2.37
2018-10-01T16:29:09.588Z,2.15
2018-10-01T16:31:37.609Z,2.27
2018-10-01T16:34:06.195Z,4.00
2018-10-01T16:36:34.207Z,1.90
2018-10-01T16:39:03.374Z,2.90
2018-10-01T16:41:31.289Z,2.35
2018-10-01T16:43:59.871Z,2.23
2018-10-01T16:48:53.500Z,1.70
2018-10-01T16:54:26.931Z,2.00
2018-10-01T16:56:55.002Z,1.70
2018-10-01T16:59:23.458Z,2.13
2018-10-01T17:01:51.502Z,2.55
2018-10-01T17:04:19.677Z,2.00
2018-10-01T17:09:20.023Z,2.00
2018-10-01T17:13:11.751Z,3.55
2018-10-01T17:15:39.766Z,3.67
2018-10-01T17:18:09.826Z,1.60
2018-10-01T17:20:38.172Z,3.37
2018-10-01T17:23:06.170Z,3.50
2018-10-01T17:25:34.078Z,2.10
2018-10-01T17:28:02.205Z,3.60
2018-10-01T17:30:30.519Z,3.53
2018-10-01T17:32:59.102Z,1.73
2018-10-01T17:35:27.689Z,4.80
2018-10-01T17:37:56.202Z,3.10
2018-10-01T17:40:24.532Z,3.70
2018-10-01T17:42:52.879Z,3.25
2018-10-01T17:45:20.749Z,3.30
2018-10-01T17:47:50.039Z,4.20
2018-10-01T17:52:45.665Z,2.93
2018-10-01T17:55:13.505Z,5.00
2018-10-01T17:57:41.626Z,3.27
2018-10-01T18:00:10.085Z,4.37
2018-10-01T18:02:38.555Z,4.47
2018-10-01T18:05:08.129Z,4.10
2018-10-01T18:07:37.286Z,5.30
2018-10-01T18:10:05.894Z,8.15
2018-10-01T18:15:01.279Z,9.20
2018-10-01T18:17:30.066Z,9.30
2018-10-01T18:19:58.090Z,4.45
2018-10-01T18:22:26.310Z,7.10
2018-10-01T18:24:54.834Z,8.20
2018-10-01T18:27:23.792Z,3.73
2018-10-01T18:29:52.819Z,6.40
2018-10-01T18:32:20.706Z,8.20
2018-10-01T18:34:51.022Z,6.20
2018-10-01T18:37:19.957Z,5.80
2018-10-01T18:39:48.314Z,4.90
2018-10-01T18:42:16.975Z,6.23
2018-10-01T18:44:45.382Z,5.50
2018-10-01T18:47:13.593Z,5.85
2018-10-01T18:49:42.251Z,6.80
2018-10-01T18:52:10.046Z,5.50
2018-10-01T18:54:38.406Z,7.93
2018-10-01T18:57:07.397Z,5.77
2018-10-01T18:59:36.604Z,4.13
2018-10-01T19:04:33.922Z,4.28
2018-10-01T19:07:03.983Z,7.40
2018-10-01T19:09:33.945Z,5.90
2018-10-01T19:12:03.797Z,5.25
2018-10-01T19:14:36.854Z,4.23
2018-10-01T19:17:06.598Z,5.15
2018-10-01T19:19:36.854Z,5.45
2018-10-01T19:22:07.787Z,3.83
2018-10-01T19:24:37.646Z,4.00
2018-10-01T19:27:07.205Z,3.40
2018-10-01T19:29:36.721Z,6.05
2018-10-01T19:32:06.944Z,4.13
2018-10-01T19:34:36.807Z,3.40
2018-10-01T19:39:22.675Z,7.07
2018-10-01T19:41:51.862Z,4.10
2018-10-01T19:44:20.982Z,7.95
2018-10-01T19:46:50.646Z,5.55
2018-10-01T19:49:19.926Z,5.23
2018-10-01T19:54:11.643Z,5.50
2018-10-01T19:56:41.681Z,5.60
2018-10-01T19:59:12.093Z,4.20
2018-10-01T20:01:41.613Z,3.00
2018-10-01T20:04:11.743Z,4.50
2018-10-01T20:06:41.753Z,3.77
2018-10-01T20:09:12.821Z,4.50
2018-10-01T20:11:42.826Z,5.50
2018-10-01T20:14:11.915Z,3.35
2018-10-01T20:19:11.896Z,4.00
2018-10-01T20:21:40.639Z,3.40
2018-10-01T20:24:09.790Z,5.05
2018-10-01T20:26:39.291Z,4.03
2018-10-01T20:29:09.038Z,3.67
2018-10-01T20:31:38.834Z,3.10
2018-10-01T20:36:36.819Z,3.03
2018-10-01T20:39:09.808Z,3.53
2018-10-01T20:43:30.930Z,2.85
2018-10-01T20:46:01.092Z,3.60
2018-10-01T20:48:30.886Z,2.80
2018-10-01T20:51:01.003Z,2.95
2018-10-01T20:58:28.610Z,3.30
2018-10-01T21:00:57.174Z,3.93
2018-10-01T21:03:25.954Z,4.70
2018-10-01T21:05:54.854Z,2.35
2018-10-01T21:10:54.722Z,4.03
2018-10-01T21:13:23.751Z,4.55
2018-10-01T21:15:53.842Z,2.40
2018-10-01T21:20:51.802Z,3.35
2018-10-01T21:23:22.247Z,3.35
2018-10-01T21:28:20.930Z,3.50
2018-10-01T21:30:51.716Z,2.47
2018-10-01T21:33:20.894Z,2.07
2018-10-01T21:35:50.625Z,2.40
2018-10-01T21:38:19.820Z,3.00
2018-10-01T21:40:49.880Z,2.90
2018-10-01T21:43:20.040Z,4.35
2018-10-01T21:45:50.181Z,2.60
2018-10-01T21:48:19.817Z,4.50
2018-10-01T21:50:50.826Z,2.20
2018-10-01T21:53:23.833Z,2.65
2018-10-01T21:55:52.933Z,2.43
2018-10-01T21:58:24.642Z,4.20
2018-10-01T22:03:12.771Z,5.00
2018-10-01T22:05:41.978Z,2.60
2018-10-01T22:08:11.910Z,2.00
2018-10-01T22:10:41.597Z,4.80
2018-10-01T22:14:31.186Z,2.62
2018-10-01T22:19:29.025Z,3.35
2018-10-01T22:24:21.920Z,2.00
2018-10-01T22:26:51.890Z,2.07
2018-10-01T22:31:50.559Z,2.95
2018-10-01T22:34:19.902Z,2.75
2018-10-01T22:38:36.911Z,7.05
2018-10-01T22:41:07.983Z,2.20
2018-10-01T22:43:38.208Z,3.90
2018-10-01T22:46:07.818Z,2.80
2018-10-01T22:48:39.841Z,4.30
2018-10-01T22:51:09.762Z,2.80
2018-10-01T22:53:40.912Z,4.00
2018-10-01T22:56:10.666Z,2.40
2018-10-01T22:58:40.842Z,3.60
2018-10-01T23:01:09.910Z,5.30
2018-10-01T23:03:40.833Z,2.95
2018-10-01T23:06:10.574Z,3.80
2018-10-01T23:08:39.842Z,4.50
2018-10-01T23:11:09.982Z,1.70
2018-10-01T23:16:07.785Z,5.10
2018-10-01T23:18:37.813Z,2.40
2018-10-01T23:21:06.403Z,3.50
2018-10-01T23:23:34.721Z,2.70
2018-10-01T23:26:03.268Z,2.70
2018-10-01T23:28:31.650Z,3.52
2018-10-01T23:31:00.060Z,3.30
2018-10-01T23:33:28.080Z,3.10
2018-10-01T23:35:56.446Z,4.73
2018-10-01T23:38:24.361Z,3.30
2018-10-01T23:40:53.209Z,4.30
2018-10-01T23:43:21.046Z,4.70
2018-10-01T23:45:50.537Z,1.90
2018-10-01T23:50:55.810Z,1.37
2018-10-01T23:53:23.549Z,3.53
2018-10-01T23:55:51.427Z,3.30
2018-10-01T23:58:20.538Z,2.67
